Main page
Satellite images 15-day forecastsClimateMarine weather Cyclones Lightning AirportsFAQ Newsletter About
Weather : Europe Africa North America South America Asia Australia-Oceania Others
Languages Contact

Dortmund, Germany

latitude: 51-31N, longitude: 007-37E, elevation: 127 m


METAR: EDLW 310750Z 17012KT CAVOK 14/10 Q1023 RMK ATIS H
TAF: EDLW 310500Z 3106/0106 19009KT CAVOK

Time: 09:18 (08:18 UTC)

Current weather observation

The report was made 28 minutes ago, at 07:50 UTC
Wind 12 kt from the South
Temperature 14°C
Humidity 77%
Pressure 1023 hPa
Visibility 10 km or more
no clouds below 1500 m and no cumulonimbus

Change units

Forecast

The report was made 3 hours and 18 minutes ago, at 05:00 UTC
Forecast valid from 31 at 06 UTC to 01 at 06 UTC
Wind 9 kt from the South
Visibility 10 km or more
no clouds below 1500 m and no cumulonimbus
The information on this site is subject to a disclaimer
Weather : Europe Africa North America South America Asia Australia-Oceania Others
Satellite images 15-day forecastsClimateMarine weather Cyclones Lightning AirportsFAQ Languages Contact Newsletter About